Time;durP1;ratioP1;P1;durP2;ratioP2;P2;SDS_P1;SDS_P2;PMS_P1;PMS_P2;Temp;Humidity;BMP_temperature;BMP_pressure;BME280_temperature;BME280_humidity;BME280_pressure;Samples;Min_cycle;Max_cycle;Signal;HPM_P1;HPM_P2
2023/11/14 00:01:28;;;;;;;17.47;3.30;;;;;;;;;;5075791;28;20228;-83
2023/11/14 00:03:54;;;;;;;15.98;4.30;;;;;;;;;;5064124;28;20439;-83
2023/11/14 00:06:21;;;;;;;14.87;3.33;;;;;;;;;;5069182;28;20188;-84
2023/11/14 00:08:47;;;;;;;17.77;2.85;;;;;;;;;;5061341;28;20471;-82
2023/11/14 00:11:13;;;;;;;14.80;3.40;;;;;;;;;;5061185;28;20631;-86
2023/11/14 00:13:39;;;;;;;10.38;3.00;;;;;;;;;;5068223;28;20260;-85
2023/11/14 00:16:06;;;;;;;22.67;5.57;;;;;;;;;;5065118;28;20185;-85
2023/11/14 00:18:32;;;;;;;24.08;4.80;;;;;;;;;;5075337;28;20189;-87
2023/11/14 00:20:58;;;;;;;20.23;3.83;;;;;;;;;;5070567;28;20592;-84
2023/11/14 00:23:24;;;;;;;14.37;3.37;;;;;;;;;;5070687;28;20434;-84
2023/11/14 00:25:50;;;;;;;17.30;3.55;;;;;;;;;;5078463;28;20784;-85
2023/11/14 00:28:16;;;;;;;20.23;4.50;;;;;;;;;;5073824;28;20205;-86
2023/11/14 00:30:42;;;;;;;15.15;3.40;;;;;;;;;;5068979;28;20201;-83
2023/11/14 00:33:08;;;;;;;16.67;3.83;;;;;;;;;;5063127;28;20193;-84
2023/11/14 00:35:34;;;;;;;19.20;3.90;;;;;;;;;;5063383;28;20265;-83
2023/11/14 00:38:00;;;;;;;18.53;4.43;;;;;;;;;;5066799;28;20470;-84
2023/11/14 00:40:26;;;;;;;15.90;4.57;;;;;;;;;;5066670;28;20406;-88
2023/11/14 00:42:52;;;;;;;19.60;3.43;;;;;;;;;;5068185;28;20926;-88
2023/11/14 00:45:18;;;;;;;17.90;4.47;;;;;;;;;;5072382;28;20458;-88
2023/11/14 00:47:44;;;;;;;18.92;3.33;;;;;;;;;;5063430;28;20466;-86
2023/11/14 00:50:11;;;;;;;22.33;4.47;;;;;;;;;;5074169;28;20220;-88
2023/11/14 00:52:37;;;;;;;20.33;3.42;;;;;;;;;;5054041;28;20172;-88
2023/11/14 00:55:04;;;;;;;23.17;5.20;;;;;;;;;;5049354;28;20197;-85
2023/11/14 00:57:30;;;;;;;16.38;3.63;;;;;;;;;;5052755;28;20424;-87
2023/11/14 00:59:56;;;;;;;24.33;4.90;;;;;;;;;;5065401;28;20186;-87
2023/11/14 01:02:22;;;;;;;21.05;3.85;;;;;;;;;;5065161;28;20527;-87
2023/11/14 01:04:48;;;;;;;27.73;4.97;;;;;;;;;;5072281;28;20191;-88
2023/11/14 01:07:14;;;;;;;16.88;4.22;;;;;;;;;;5069551;28;20176;-88
2023/11/14 01:09:40;;;;;;;29.23;5.53;;;;;;;;;;5075448;28;20220;-87
2023/11/14 01:12:07;;;;;;;21.27;4.13;;;;;;;;;;5086718;28;20435;-84
2023/11/14 01:14:33;;;;;;;20.98;4.15;;;;;;;;;;5053830;28;20501;-84
2023/11/14 01:16:59;;;;;;;20.27;4.15;;;;;;;;;;5077593;28;20339;-89
2023/11/14 01:19:25;;;;;;;21.27;3.50;;;;;;;;;;5071004;28;20288;-84
2023/11/14 01:21:52;;;;;;;30.43;4.50;;;;;;;;;;5080294;28;20431;-86
2023/11/14 01:24:18;;;;;;;23.95;3.85;;;;;;;;;;5064999;28;20764;-92
2023/11/14 01:26:44;;;;;;;20.07;3.90;;;;;;;;;;5067269;28;20269;-91
2023/11/14 01:29:10;;;;;;;25.83;5.40;;;;;;;;;;5068691;28;20462;-87
2023/11/14 01:31:36;;;;;;;17.73;4.93;;;;;;;;;;5045371;28;20495;-92
2023/11/14 01:34:02;;;;;;;17.53;4.13;;;;;;;;;;5047578;28;20262;-85
2023/11/14 01:36:28;;;;;;;15.63;3.17;;;;;;;;;;5068438;28;20421;-89
2023/11/14 01:38:55;;;;;;;20.65;3.80;;;;;;;;;;5046575;28;20586;-85
2023/11/14 01:41:21;;;;;;;15.48;4.05;;;;;;;;;;5064361;28;20210;-90
2023/11/14 01:43:47;;;;;;;14.18;2.30;;;;;;;;;;5074244;28;20192;-87
2023/11/14 01:46:15;;;;;;;23.02;5.28;;;;;;;;;;5070645;28;20220;-85
2023/11/14 01:48:42;;;;;;;17.35;4.57;;;;;;;;;;5079250;28;20203;-89
2023/11/14 01:51:08;;;;;;;25.38;5.53;;;;;;;;;;5052901;28;20192;-88
2023/11/14 01:53:34;;;;;;;15.00;4.23;;;;;;;;;;5062991;28;20268;-88
2023/11/14 01:56:00;;;;;;;18.85;3.90;;;;;;;;;;5066583;28;20435;-88
2023/11/14 01:58:26;;;;;;;13.27;3.40;;;;;;;;;;5065027;28;20188;-87
2023/11/14 02:00:52;;;;;;;14.20;3.20;;;;;;;;;;5068600;28;20833;-87
2023/11/14 02:03:18;;;;;;;23.08;4.93;;;;;;;;;;5073785;28;20231;-87
2023/11/14 02:05:44;;;;;;;16.40;3.75;;;;;;;;;;5050087;28;20542;-86
2023/11/14 02:08:11;;;;;;;16.17;6.07;;;;;;;;;;5054854;28;20216;-88
2023/11/14 02:10:37;;;;;;;21.77;4.18;;;;;;;;;;5053045;28;20565;-87
2023/11/14 02:13:03;;;;;;;14.00;4.33;;;;;;;;;;5063646;28;20276;-87
2023/11/14 02:15:28;;;;;;;19.65;4.53;;;;;;;;;;5074665;28;21157;-88
2023/11/14 02:17:54;;;;;;;17.93;4.33;;;;;;;;;;5070719;28;20192;-88
2023/11/14 02:20:20;;;;;;;15.03;4.00;;;;;;;;;;5077618;28;20436;-87
2023/11/14 02:22:46;;;;;;;22.50;4.47;;;;;;;;;;5044909;28;20416;-88
2023/11/14 02:25:12;;;;;;;22.63;3.87;;;;;;;;;;5056480;28;20478;-90
2023/11/14 02:27:38;;;;;;;15.13;4.27;;;;;;;;;;5071067;28;20542;-87
2023/11/14 02:30:05;;;;;;;11.77;3.45;;;;;;;;;;5076089;28;20427;-85
2023/11/14 02:32:31;;;;;;;18.45;3.55;;;;;;;;;;5072479;28;20189;-84
2023/11/14 02:34:57;;;;;;;23.50;4.47;;;;;;;;;;5070384;28;20174;-86
2023/11/14 02:37:24;;;;;;;16.45;3.03;;;;;;;;;;5071482;28;20428;-87
2023/11/14 02:39:50;;;;;;;19.35;4.20;;;;;;;;;;5066175;28;20177;-88
2023/11/14 02:42:16;;;;;;;14.73;3.20;;;;;;;;;;5080084;28;20215;-88
2023/11/14 02:44:43;;;;;;;20.00;3.38;;;;;;;;;;5069275;28;20439;-89
2023/11/14 02:47:09;;;;;;;22.73;5.70;;;;;;;;;;5066471;28;20182;-86
2023/11/14 02:49:48;;;;;;;22.43;4.80;;;;;;;;;;5073447;28;20215;-88
2023/11/14 02:52:14;;;;;;;20.50;3.47;;;;;;;;;;5073713;28;20445;-89
2023/11/14 02:54:40;;;;;;;20.30;4.55;;;;;;;;;;5051848;28;20671;-84
2023/11/14 02:57:07;;;;;;;24.00;4.85;;;;;;;;;;5072686;28;20181;-89
2023/11/14 02:59:34;;;;;;;28.65;4.10;;;;;;;;;;5062590;28;20208;-89
2023/11/14 03:02:00;;;;;;;20.65;3.40;;;;;;;;;;5065929;28;20229;-91
2023/11/14 03:04:26;;;;;;;15.43;3.60;;;;;;;;;;5062141;28;20518;-89
2023/11/14 03:06:52;;;;;;;16.13;3.77;;;;;;;;;;5056171;28;20193;-89
2023/11/14 03:09:18;;;;;;;27.17;4.13;;;;;;;;;;5057495;28;20464;-89
2023/11/14 03:11:44;;;;;;;18.02;4.53;;;;;;;;;;5066151;28;20181;-91
2023/11/14 03:14:10;;;;;;;17.02;3.45;;;;;;;;;;5068371;28;20606;-87
2023/11/14 03:16:37;;;;;;;19.83;4.18;;;;;;;;;;5066171;28;20188;-90
2023/11/14 03:19:03;;;;;;;18.92;4.00;;;;;;;;;;5069594;28;20181;-90
2023/11/14 03:21:29;;;;;;;28.10;4.47;;;;;;;;;;5068842;28;20234;-90
2023/11/14 03:23:55;;;;;;;22.67;4.33;;;;;;;;;;5084944;28;20419;-91
2023/11/14 03:26:30;;;;;;;22.47;5.60;;;;;;;;;;5052740;28;20986;-85
2023/11/14 03:28:57;;;;;;;16.73;3.90;;;;;;;;;;5063137;28;20457;-92
2023/11/14 03:31:23;;;;;;;20.90;4.45;;;;;;;;;;5088042;28;20293;-92
2023/11/14 03:33:49;;;;;;;19.90;5.15;;;;;;;;;;5072352;28;20193;-91
2023/11/14 03:36:15;;;;;;;23.80;5.10;;;;;;;;;;5070511;28;20181;-88
2023/11/14 03:38:42;;;;;;;16.60;5.30;;;;;;;;;;5059515;28;20188;-89
2023/11/14 03:41:08;;;;;;;17.02;4.07;;;;;;;;;;5076385;28;20524;-87
2023/11/14 03:43:34;;;;;;;18.00;3.38;;;;;;;;;;5067543;28;20196;-88
2023/11/14 03:46:00;;;;;;;18.92;4.53;;;;;;;;;;5051185;28;20182;-87
2023/11/14 03:48:26;;;;;;;15.47;4.40;;;;;;;;;;5068895;28;20215;-88
2023/11/14 03:50:52;;;;;;;20.85;4.82;;;;;;;;;;5069877;28;20780;-87
2023/11/14 03:53:18;;;;;;;25.70;4.67;;;;;;;;;;5068941;28;20187;-86
2023/11/14 03:55:44;;;;;;;21.57;5.20;;;;;;;;;;5066433;28;20420;-88
2023/11/14 03:58:10;;;;;;;25.00;5.00;;;;;;;;;;5074657;28;20534;-86
2023/11/14 04:00:36;;;;;;;21.90;4.70;;;;;;;;;;5068622;28;20430;-88
2023/11/14 04:03:02;;;;;;;18.77;4.43;;;;;;;;;;5062199;28;20324;-88
2023/11/14 04:05:28;;;;;;;9.90;4.35;;;;;;;;;;5068937;28;20878;-87
2023/11/14 04:07:55;;;;;;;19.80;3.57;;;;;;;;;;5069368;28;20232;-86
2023/11/14 04:10:21;;;;;;;16.25;3.88;;;;;;;;;;5071599;28;20922;-89
2023/11/14 04:12:48;;;;;;;14.15;2.80;;;;;;;;;;5075256;28;20552;-90
2023/11/14 04:15:14;;;;;;;16.45;3.88;;;;;;;;;;5074660;28;20180;-84
2023/11/14 04:17:41;;;;;;;12.88;3.35;;;;;;;;;;5084562;28;20645;-90
2023/11/14 04:20:07;;;;;;;24.83;4.32;;;;;;;;;;5091214;28;20180;-90
2023/11/14 04:22:33;;;;;;;23.30;4.30;;;;;;;;;;5083155;28;20184;-90
2023/11/14 04:24:59;;;;;;;18.05;4.15;;;;;;;;;;5069779;28;20181;-87
2023/11/14 04:27:25;;;;;;;15.55;3.90;;;;;;;;;;5072777;28;20188;-88
2023/11/14 04:29:51;;;;;;;22.20;5.70;;;;;;;;;;5068879;28;20250;-87
2023/11/14 04:32:17;;;;;;;11.40;2.90;;;;;;;;;;5075896;28;20428;-87
2023/11/14 04:34:46;;;;;;;16.52;3.88;;;;;;;;;;5070671;28;20908;-89
2023/11/14 04:37:12;;;;;;;20.45;3.78;;;;;;;;;;5069836;28;20216;-84
2023/11/14 04:39:38;;;;;;;19.27;4.20;;;;;;;;;;5075352;28;20636;-90
2023/11/14 04:42:05;;;;;;;15.38;3.95;;;;;;;;;;5067718;28;20627;-90
2023/11/14 04:44:31;;;;;;;16.88;3.13;;;;;;;;;;5071864;28;20185;-85
2023/11/14 04:47:00;;;;;;;16.38;3.97;;;;;;;;;;5072698;28;20208;-90
2023/11/14 04:49:26;;;;;;;20.60;3.80;;;;;;;;;;5064809;28;20204;-90
2023/11/14 04:51:52;;;;;;;18.97;4.30;;;;;;;;;;5061527;28;20552;-90
2023/11/14 04:54:18;;;;;;;14.40;3.90;;;;;;;;;;5070078;28;20430;-89
2023/11/14 04:56:45;;;;;;;15.23;3.87;;;;;;;;;;5061915;28;20428;-89
2023/11/14 04:59:11;;;;;;;17.48;3.63;;;;;;;;;;5065713;28;20439;-87
2023/11/14 05:01:37;;;;;;;24.43;3.80;;;;;;;;;;5072836;28;20235;-89
2023/11/14 05:04:03;;;;;;;18.10;3.80;;;;;;;;;;5077148;28;20461;-90
2023/11/14 05:06:32;;;;;;;23.13;4.72;;;;;;;;;;5074914;28;20181;-91
2023/11/14 05:08:58;;;;;;;23.08;4.45;;;;;;;;;;5071101;28;20271;-89
2023/11/14 05:11:24;;;;;;;18.50;4.25;;;;;;;;;;5075553;28;20195;-88
2023/11/14 05:13:50;;;;;;;26.15;4.80;;;;;;;;;;5049222;28;20178;-89
2023/11/14 05:16:16;;;;;;;21.08;4.38;;;;;;;;;;5082028;28;20235;-87
2023/11/14 05:18:44;;;;;;;22.63;4.07;;;;;;;;;;5063988;28;20256;-88
2023/11/14 05:21:10;;;;;;;28.42;5.72;;;;;;;;;;5067533;28;20420;-89
2023/11/14 05:23:36;;;;;;;20.53;4.60;;;;;;;;;;5064190;28;20176;-89
2023/11/14 05:26:02;;;;;;;14.47;3.57;;;;;;;;;;5073168;28;20450;-86
2023/11/14 05:28:28;;;;;;;19.80;4.03;;;;;;;;;;5060104;28;20541;-88
2023/11/14 05:30:54;;;;;;;19.57;4.30;;;;;;;;;;5066610;28;20439;-88
2023/11/14 05:33:20;;;;;;;18.97;4.20;;;;;;;;;;5073577;28;20495;-88
2023/11/14 05:35:46;;;;;;;19.47;4.20;;;;;;;;;;5053467;28;20434;-90
2023/11/14 05:38:12;;;;;;;17.57;3.70;;;;;;;;;;5048689;28;20440;-89
2023/11/14 05:40:38;;;;;;;16.80;4.60;;;;;;;;;;5045534;28;20795;-90
2023/11/14 05:43:04;;;;;;;21.20;4.67;;;;;;;;;;5051436;28;20522;-90
2023/11/14 05:45:31;;;;;;;20.83;5.03;;;;;;;;;;5069983;28;20424;-89
2023/11/14 05:47:57;;;;;;;17.38;4.47;;;;;;;;;;5061698;28;20510;-89
2023/11/14 05:50:23;;;;;;;12.18;5.15;;;;;;;;;;5067604;28;20188;-88
2023/11/14 05:52:49;;;;;;;17.73;3.93;;;;;;;;;;5071415;28;20192;-88
2023/11/14 05:55:15;;;;;;;17.97;3.30;;;;;;;;;;5053432;28;20441;-87
2023/11/14 05:57:41;;;;;;;17.10;3.80;;;;;;;;;;5073818;28;20927;-89
2023/11/14 06:00:07;;;;;;;24.17;3.90;;;;;;;;;;5048943;28;20448;-89
2023/11/14 06:02:33;;;;;;;17.27;3.05;;;;;;;;;;5062673;28;20613;-88
2023/11/14 06:04:59;;;;;;;21.67;3.60;;;;;;;;;;5077403;28;20284;-89
2023/11/14 06:07:25;;;;;;;16.40;4.97;;;;;;;;;;5072700;28;20417;-90
2023/11/14 06:09:51;;;;;;;17.63;3.75;;;;;;;;;;5069749;28;20586;-88
2023/11/14 06:12:17;;;;;;;13.47;2.93;;;;;;;;;;5071502;28;20255;-89
2023/11/14 06:14:43;;;;;;;16.05;3.20;;;;;;;;;;5073199;28;20423;-91
2023/11/14 06:17:09;;;;;;;14.00;2.73;;;;;;;;;;5071817;28;20186;-84
2023/11/14 06:19:36;;;;;;;22.80;6.77;;;;;;;;;;5072825;28;20443;-84
2023/11/14 06:22:02;;;;;;;21.00;5.38;;;;;;;;;;5071930;28;20545;-86
2023/11/14 06:24:28;;;;;;;21.27;4.15;;;;;;;;;;5073558;28;20550;-88
2023/11/14 06:26:54;;;;;;;18.03;4.43;;;;;;;;;;5049236;28;20177;-86
2023/11/14 06:29:20;;;;;;;15.20;3.40;;;;;;;;;;5065063;28;20476;-86
2023/11/14 06:31:46;;;;;;;16.35;4.28;;;;;;;;;;5070161;28;21099;-86
2023/11/14 06:34:12;;;;;;;19.13;3.60;;;;;;;;;;5054456;28;20212;-86
2023/11/14 06:36:38;;;;;;;11.68;3.47;;;;;;;;;;5069226;28;20813;-84
2023/11/14 06:39:05;;;;;;;20.50;5.00;;;;;;;;;;5050891;28;20193;-87
2023/11/14 06:41:31;;;;;;;21.65;4.90;;;;;;;;;;5047015;28;20556;-87
2023/11/14 06:43:57;;;;;;;27.90;4.10;;;;;;;;;;5067332;28;20193;-83
2023/11/14 06:46:23;;;;;;;16.60;4.63;;;;;;;;;;5084145;28;20418;-82
2023/11/14 06:48:49;;;;;;;14.68;3.58;;;;;;;;;;5061978;28;20467;-82
2023/11/14 06:51:15;;;;;;;13.47;3.20;;;;;;;;;;5070129;28;20199;-83
2023/11/14 06:53:41;;;;;;;20.70;4.40;;;;;;;;;;5041895;28;20424;-83
2023/11/14 06:56:12;;;;;;;24.48;4.07;;;;;;;;;;5072355;28;20226;-84
2023/11/14 06:58:40;;;;;;;14.38;3.35;;;;;;;;;;5058103;28;20267;-84
2023/11/14 07:01:07;;;;;;;13.02;3.50;;;;;;;;;;5067266;28;20208;-83
2023/11/14 07:03:33;;;;;;;14.02;3.70;;;;;;;;;;5061244;28;20739;-82
2023/11/14 07:05:59;;;;;;;18.48;4.00;;;;;;;;;;5069543;28;20180;-81
2023/11/14 07:08:25;;;;;;;19.67;4.10;;;;;;;;;;5059585;28;20201;-82
2023/11/14 07:10:51;;;;;;;23.35;4.30;;;;;;;;;;5070117;28;20460;-81
2023/11/14 07:13:17;;;;;;;11.83;3.30;;;;;;;;;;5066361;28;20193;-82
2023/11/14 07:15:47;;;;;;;21.15;4.20;;;;;;;;;;5066935;28;20408;-93
2023/11/14 07:18:13;;;;;;;19.67;3.65;;;;;;;;;;5067512;28;20668;-93
2023/11/14 07:20:39;;;;;;;17.60;4.18;;;;;;;;;;5080259;28;20189;-94
2023/11/14 07:23:05;;;;;;;20.67;3.07;;;;;;;;;;5083814;28;20506;-84
2023/11/14 07:25:34;;;;;;;21.20;4.00;;;;;;;;;;5077090;28;20473;-84
2023/11/14 07:28:00;;;;;;;13.48;2.85;;;;;;;;;;5077534;28;20462;-84
2023/11/14 07:30:27;;;;;;;14.30;4.53;;;;;;;;;;5046260;28;20251;-82
2023/11/14 07:32:54;;;;;;;15.18;3.20;;;;;;;;;;5075842;28;20467;-84
2023/11/14 07:35:21;;;;;;;10.30;3.22;;;;;;;;;;5077856;28;20215;-84
2023/11/14 07:37:48;;;;;;;12.52;2.90;;;;;;;;;;5072250;28;20181;-86
2023/11/14 07:40:14;;;;;;;19.08;5.30;;;;;;;;;;5073723;28;20545;-83
2023/11/14 07:42:40;;;;;;;7.93;3.13;;;;;;;;;;5071747;28;20173;-85
2023/11/14 07:45:06;;;;;;;11.80;2.33;;;;;;;;;;5076072;28;20196;-86
2023/11/14 07:47:33;;;;;;;12.43;3.53;;;;;;;;;;5071841;28;20805;-86
2023/11/14 07:49:59;;;;;;;12.30;3.25;;;;;;;;;;5072766;28;20477;-85
2023/11/14 07:52:25;;;;;;;14.77;3.22;;;;;;;;;;5067340;28;20241;-86
2023/11/14 07:54:53;;;;;;;13.87;4.43;;;;;;;;;;5075831;28;20669;-85
2023/11/14 07:57:19;;;;;;;12.68;3.72;;;;;;;;;;5075275;28;20432;-82
2023/11/14 07:59:45;;;;;;;20.95;3.88;;;;;;;;;;5065519;28;20222;-88
2023/11/14 08:02:11;;;;;;;18.80;3.27;;;;;;;;;;5069725;28;20233;-89
2023/11/14 08:04:37;;;;;;;12.93;3.23;;;;;;;;;;5065367;28;20508;-92
2023/11/14 08:07:07;;;;;;;14.27;3.50;;;;;;;;;;5085813;28;20415;-85
2023/11/14 08:09:33;;;;;;;19.50;3.65;;;;;;;;;;5067282;28;20728;-87
2023/11/14 08:11:59;;;;;;;19.83;3.83;;;;;;;;;;5069102;28;20189;-85
2023/11/14 08:14:25;;;;;;;18.30;4.17;;;;;;;;;;5068343;28;20430;-84
2023/11/14 08:16:51;;;;;;;20.67;3.47;;;;;;;;;;5068438;28;20993;-86
2023/11/14 08:19:17;;;;;;;16.23;3.77;;;;;;;;;;5082553;28;20484;-86
2023/11/14 08:21:43;;;;;;;16.27;3.35;;;;;;;;;;5074866;28;20446;-85
2023/11/14 08:24:09;;;;;;;16.23;3.17;;;;;;;;;;5074247;28;20193;-84
2023/11/14 08:26:35;;;;;;;14.55;2.80;;;;;;;;;;5073428;28;20418;-84
2023/11/14 08:29:01;;;;;;;14.70;3.30;;;;;;;;;;5089998;28;20201;-85
2023/11/14 08:31:27;;;;;;;9.43;2.60;;;;;;;;;;5074032;28;20485;-84
2023/11/14 08:33:55;;;;;;;14.40;2.90;;;;;;;;;;5049434;28;20555;-84
2023/11/14 08:36:21;;;;;;;16.58;3.85;;;;;;;;;;5069874;28;20524;-84
2023/11/14 08:38:47;;;;;;;9.63;2.50;;;;;;;;;;5066119;28;20213;-86
2023/11/14 08:41:13;;;;;;;18.10;4.50;;;;;;;;;;5084811;28;20502;-85
2023/11/14 08:43:40;;;;;;;19.20;4.50;;;;;;;;;;5063654;28;20465;-86
2023/11/14 08:46:07;;;;;;;9.83;2.80;;;;;;;;;;5067880;28;20548;-85
2023/11/14 08:48:33;;;;;;;11.07;2.90;;;;;;;;;;5067085;28;20461;-85
2023/11/14 08:50:59;;;;;;;9.43;3.97;;;;;;;;;;5080616;28;20419;-84
2023/11/14 08:53:25;;;;;;;17.73;3.60;;;;;;;;;;5065512;28;20481;-83
2023/11/14 08:55:53;;;;;;;10.93;2.70;;;;;;;;;;5066938;28;20450;-85
2023/11/14 08:58:19;;;;;;;13.75;3.50;;;;;;;;;;5073036;28;20473;-85
2023/11/14 09:00:47;;;;;;;17.00;3.45;;;;;;;;;;5067893;28;20184;-85
2023/11/14 09:03:12;;;;;;;10.65;3.85;;;;;;;;;;5072958;28;20648;-85
2023/11/14 09:05:38;;;;;;;14.80;3.60;;;;;;;;;;5063534;28;20180;-84
2023/11/14 09:08:04;;;;;;;17.50;3.87;;;;;;;;;;5084517;28;20913;-84
2023/11/14 09:10:30;;;;;;;15.45;2.90;;;;;;;;;;5072889;28;20447;-84
2023/11/14 09:12:56;;;;;;;13.97;2.80;;;;;;;;;;5042026;28;20189;-85
2023/11/14 09:15:23;;;;;;;16.93;3.43;;;;;;;;;;5069832;28;20904;-84
2023/11/14 09:17:49;;;;;;;19.90;3.70;;;;;;;;;;5049007;28;20466;-85
2023/11/14 09:20:16;;;;;;;15.20;3.63;;;;;;;;;;5076177;28;20449;-85
2023/11/14 09:22:42;;;;;;;14.50;3.40;;;;;;;;;;5063127;28;20607;-85
2023/11/14 09:25:09;;;;;;;18.63;3.37;;;;;;;;;;5069066;28;20412;-84
2023/11/14 09:27:35;;;;;;;18.73;4.13;;;;;;;;;;5072296;28;20920;-84
2023/11/14 09:30:01;;;;;;;13.30;2.53;;;;;;;;;;5065034;28;20445;-85
2023/11/14 09:32:27;;;;;;;12.63;2.73;;;;;;;;;;5068391;28;20786;-85
2023/11/14 09:34:53;;;;;;;11.97;3.10;;;;;;;;;;5067860;28;20502;-85
2023/11/14 09:37:19;;;;;;;13.13;3.60;;;;;;;;;;5061877;28;20438;-86
2023/11/14 09:39:45;;;;;;;12.15;2.95;;;;;;;;;;5061376;28;20437;-86
2023/11/14 09:42:12;;;;;;;11.83;2.37;;;;;;;;;;5067357;28;20181;-86
2023/11/14 09:44:38;;;;;;;12.37;2.97;;;;;;;;;;5073546;28;20430;-85
2023/11/14 09:47:08;;;;;;;12.57;3.00;;;;;;;;;;5072661;28;20825;-86
2023/11/14 09:49:34;;;;;;;18.60;2.70;;;;;;;;;;5070982;28;20979;-85
2023/11/14 09:52:00;;;;;;;16.20;2.97;;;;;;;;;;5071079;28;20439;-85
2023/11/14 09:54:27;;;;;;;11.07;3.20;;;;;;;;;;5054828;28;20514;-85
2023/11/14 09:56:53;;;;;;;11.67;2.70;;;;;;;;;;5044972;28;20837;-85
2023/11/14 09:59:19;;;;;;;9.77;2.77;;;;;;;;;;5069986;28;20822;-85
2023/11/14 10:01:45;;;;;;;6.23;2.90;;;;;;;;;;5063390;28;20475;-85
2023/11/14 10:04:12;;;;;;;11.30;2.90;;;;;;;;;;5064026;28;20427;-85
2023/11/14 10:06:41;;;;;;;11.25;2.75;;;;;;;;;;5074270;28;20798;-85
2023/11/14 10:09:16;;;;;;;5.50;2.30;;;;;;;;;;5073086;28;20268;-85
2023/11/14 10:11:45;;;;;;;10.80;3.25;;;;;;;;;;5068844;28;20442;-85
2023/11/14 10:14:11;;;;;;;15.77;2.88;;;;;;;;;;5072546;28;20173;-85
2023/11/14 10:16:37;;;;;;;6.60;2.00;;;;;;;;;;5070983;28;20195;-84
2023/11/14 10:19:14;;;;;;;9.17;2.67;;;;;;;;;;5068630;28;20412;-85
2023/11/14 10:21:40;;;;;;;15.05;2.10;;;;;;;;;;5071794;28;20477;-86
2023/11/14 10:24:12;;;;;;;11.87;2.60;;;;;;;;;;5057321;28;20191;-85
2023/11/14 10:26:50;;;;;;;8.48;2.42;;;;;;;;;;5069354;28;20426;-82
2023/11/14 10:29:18;;;;;;;11.30;1.90;;;;;;;;;;5062242;28;20210;-85
2023/11/14 10:31:44;;;;;;;11.98;2.83;;;;;;;;;;5072689;28;20181;-85
2023/11/14 10:34:28;;;;;;;8.27;2.10;;;;;;;;;;5072717;28;20181;-85
2023/11/14 10:36:55;;;;;;;11.35;3.05;;;;;;;;;;5071516;28;20330;-86
2023/11/14 10:39:22;;;;;;;12.30;3.10;;;;;;;;;;5076394;28;20183;-84
2023/11/14 10:41:49;;;;;;;19.87;3.00;;;;;;;;;;5064533;28;20166;-85
2023/11/14 10:44:15;;;;;;;21.20;3.45;;;;;;;;;;5076121;28;20427;-86
2023/11/14 10:46:48;;;;;;;7.28;2.22;;;;;;;;;;5071670;28;20555;-86
2023/11/14 10:49:14;;;;;;;5.47;1.33;;;;;;;;;;5064559;28;20227;-85
2023/11/14 10:51:41;;;;;;;9.23;2.60;;;;;;;;;;5069850;28;20176;-86
2023/11/14 10:54:08;;;;;;;8.93;2.42;;;;;;;;;;5078352;28;20522;-85
2023/11/14 10:56:35;;;;;;;7.78;2.78;;;;;;;;;;5072496;28;20537;-84
2023/11/14 10:59:03;;;;;;;15.82;2.78;;;;;;;;;;5083383;28;20232;-85
2023/11/14 11:01:29;;;;;;;12.40;2.85;;;;;;;;;;5071541;28;21932;-85
2023/11/14 11:03:56;;;;;;;10.02;2.78;;;;;;;;;;5079694;28;20247;-85
2023/11/14 11:06:25;;;;;;;13.07;3.22;;;;;;;;;;5067891;28;20217;-86
2023/11/14 11:08:51;;;;;;;16.23;2.70;;;;;;;;;;5076262;28;20232;-87
2023/11/14 11:11:18;;;;;;;12.75;3.08;;;;;;;;;;5073405;28;20418;-86
2023/11/14 11:13:46;;;;;;;16.00;3.63;;;;;;;;;;5087082;28;20172;-85
2023/11/14 11:16:12;;;;;;;15.23;2.67;;;;;;;;;;5074899;28;20260;-85
2023/11/14 11:18:41;;;;;;;6.83;2.80;;;;;;;;;;5066269;28;20216;-85
2023/11/14 11:21:11;;;;;;;9.00;2.10;;;;;;;;;;5053077;28;20477;-85
2023/11/14 11:24:16;;;;;;;16.73;2.53;;;;;;;;;;5074511;28;21015;-85
2023/11/14 11:27:05;;;;;;;8.45;2.20;;;;;;;;;;5021228;28;21014;-85
2023/11/14 11:29:48;;;;;;;12.43;2.85;;;;;;;;;;5019560;28;20212;-84
2023/11/14 11:32:22;;;;;;;11.25;2.17;;;;;;;;;;5063267;28;20193;-84
2023/11/14 11:35:08;;;;;;;10.05;2.80;;;;;;;;;;5075763;28;20710;-86
2023/11/14 11:37:45;;;;;;;8.75;2.58;;;;;;;;;;5083018;28;20260;-84
2023/11/14 11:40:14;;;;;;;9.25;2.60;;;;;;;;;;5072946;28;20205;-85
2023/11/14 11:42:40;;;;;;;7.60;2.70;;;;;;;;;;5070720;28;20518;-85
2023/11/14 11:45:07;;;;;;;11.82;2.50;;;;;;;;;;5084603;28;20211;-86
2023/11/14 11:47:34;;;;;;;5.07;1.58;;;;;;;;;;5073390;28;20255;-86
2023/11/14 11:50:00;;;;;;;9.65;1.75;;;;;;;;;;5073630;28;20242;-87
2023/11/14 11:52:32;;;;;;;6.18;1.50;;;;;;;;;;5075748;28;20197;-89
2023/11/14 11:55:17;;;;;;;6.00;1.80;;;;;;;;;;5068432;28;20231;-90
2023/11/14 11:57:47;;;;;;;4.60;2.17;;;;;;;;;;5076366;28;20647;-91
2023/11/14 12:00:17;;;;;;;8.63;1.73;;;;;;;;;;5054710;28;20555;-91
2023/11/14 12:02:43;;;;;;;7.65;2.35;;;;;;;;;;5074063;28;20244;-92
2023/11/14 12:05:10;;;;;;;8.63;2.75;;;;;;;;;;5076288;28;20246;-91
2023/11/14 12:07:36;;;;;;;8.70;1.90;;;;;;;;;;5074708;28;20177;-91
2023/11/14 12:10:05;;;;;;;14.93;2.35;;;;;;;;;;5069830;28;20225;-90
2023/11/14 12:12:37;;;;;;;9.45;1.65;;;;;;;;;;5060029;28;20181;-90
2023/11/14 12:15:05;;;;;;;6.50;2.17;;;;;;;;;;5083229;28;20231;-90
2023/11/14 12:17:34;;;;;;;14.73;2.85;;;;;;;;;;5075628;28;20177;-89
2023/11/14 12:20:00;;;;;;;10.85;2.40;;;;;;;;;;5072292;28;20601;-90
2023/11/14 12:22:30;;;;;;;7.80;2.10;;;;;;;;;;5075534;28;20223;-89
2023/11/14 12:24:57;;;;;;;12.13;2.47;;;;;;;;;;5081587;28;20176;-88
2023/11/14 12:27:23;;;;;;;8.70;3.00;;;;;;;;;;5061809;28;20195;-87
2023/11/14 12:30:09;;;;;;;7.83;3.33;;;;;;;;;;5080414;28;20205;-87
2023/11/14 12:32:39;;;;;;;12.57;4.20;;;;;;;;;;5062112;28;20451;-87
2023/11/14 12:35:07;;;;;;;15.07;3.90;;;;;;;;;;5067343;28;20188;-87
2023/11/14 12:37:33;;;;;;;13.05;2.60;;;;;;;;;;5065738;28;20243;-87
2023/11/14 12:40:10;;;;;;;16.15;5.63;;;;;;;;;;5077065;28;20219;-87
2023/11/14 12:42:39;;;;;;;12.07;4.90;;;;;;;;;;5071207;28;20195;-87
2023/11/14 12:45:09;;;;;;;9.02;3.10;;;;;;;;;;5074558;28;20207;-87
2023/11/14 12:47:39;;;;;;;8.10;2.75;;;;;;;;;;5052595;28;20192;-87
2023/11/14 12:50:05;;;;;;;15.18;3.42;;;;;;;;;;5061416;28;20196;-87
2023/11/14 12:52:33;;;;;;;23.65;4.10;;;;;;;;;;5054887;28;20203;-87
2023/11/14 12:54:59;;;;;;;12.80;2.88;;;;;;;;;;5065114;28;20230;-87
2023/11/14 12:57:25;;;;;;;19.13;4.40;;;;;;;;;;5072220;28;20199;-87
2023/11/14 12:59:51;;;;;;;17.00;4.00;;;;;;;;;;5071098;28;20538;-87
2023/11/14 13:02:17;;;;;;;15.50;3.90;;;;;;;;;;5082422;28;20556;-86
2023/11/14 13:04:43;;;;;;;20.13;3.58;;;;;;;;;;5065538;28;20590;-85
2023/11/14 13:07:10;;;;;;;24.83;3.67;;;;;;;;;;5070079;28;20221;-86
2023/11/14 13:09:36;;;;;;;17.05;4.95;;;;;;;;;;5065923;28;20467;-86
2023/11/14 13:12:20;;;;;;;16.70;4.53;;;;;;;;;;5071103;28;20265;-86
2023/11/14 13:14:46;;;;;;;25.33;4.10;;;;;;;;;;5085319;28;20188;-86
2023/11/14 13:17:12;;;;;;;20.35;4.78;;;;;;;;;;5081359;28;20192;-85
2023/11/14 13:19:38;;;;;;;14.20;3.42;;;;;;;;;;5071259;28;20212;-85
2023/11/14 13:22:11;;;;;;;19.67;3.83;;;;;;;;;;5080648;28;20180;-85
2023/11/14 13:24:37;;;;;;;20.38;4.00;;;;;;;;;;5055993;28;20222;-86
2023/11/14 13:27:03;;;;;;;15.80;4.07;;;;;;;;;;5067699;28;20598;-86
2023/11/14 13:29:29;;;;;;;14.18;3.55;;;;;;;;;;5069114;28;20259;-86
2023/11/14 13:31:55;;;;;;;24.77;4.37;;;;;;;;;;5069477;28;20177;-87
2023/11/14 13:34:21;;;;;;;16.05;3.53;;;;;;;;;;5069071;28;20837;-87
2023/11/14 13:36:47;;;;;;;20.70;3.55;;;;;;;;;;5072458;28;20549;-87
2023/11/14 13:39:14;;;;;;;12.50;3.15;;;;;;;;;;5069966;28;20177;-87
2023/11/14 13:41:42;;;;;;;14.07;4.13;;;;;;;;;;5062866;28;20173;-88
2023/11/14 13:44:08;;;;;;;9.52;2.83;;;;;;;;;;5072404;28;20262;-88
2023/11/14 13:46:34;;;;;;;12.93;3.28;;;;;;;;;;5069586;28;20223;-89
2023/11/14 13:49:00;;;;;;;15.77;3.30;;;;;;;;;;5070594;28;20200;-88
2023/11/14 13:51:26;;;;;;;13.40;3.13;;;;;;;;;;5077913;28;20253;-89
2023/11/14 13:53:52;;;;;;;13.77;3.10;;;;;;;;;;5060237;28;20781;-88
2023/11/14 13:56:18;;;;;;;22.63;4.65;;;;;;;;;;5071395;28;20181;-89
2023/11/14 13:58:44;;;;;;;17.48;3.40;;;;;;;;;;5075093;28;20183;-88
2023/11/14 14:01:11;;;;;;;13.98;3.72;;;;;;;;;;5073408;28;20231;-89
2023/11/14 14:03:37;;;;;;;8.60;2.90;;;;;;;;;;5055062;28;20207;-90
2023/11/14 14:06:07;;;;;;;9.50;3.40;;;;;;;;;;5063589;28;20193;-89
2023/11/14 14:08:33;;;;;;;14.55;3.08;;;;;;;;;;5070862;28;20531;-89
2023/11/14 14:11:00;;;;;;;10.27;2.72;;;;;;;;;;5070576;28;20191;-89
2023/11/14 14:13:27;;;;;;;11.88;2.60;;;;;;;;;;5071247;28;20203;-88
2023/11/14 14:15:53;;;;;;;9.00;2.85;;;;;;;;;;5073237;28;20181;-88
2023/11/14 14:18:20;;;;;;;10.25;2.75;;;;;;;;;;5072736;28;20187;-88
2023/11/14 14:20:50;;;;;;;10.02;3.25;;;;;;;;;;5076297;28;20168;-87
2023/11/14 14:23:16;;;;;;;10.88;3.10;;;;;;;;;;5062711;28;20230;-88
2023/11/14 14:25:43;;;;;;;20.00;2.90;;;;;;;;;;5064803;28;20177;-88
2023/11/14 14:28:09;;;;;;;10.77;2.80;;;;;;;;;;5063557;28;20201;-87
2023/11/14 14:30:36;;;;;;;14.60;3.37;;;;;;;;;;5068594;28;20597;-88